Time;durP1;ratioP1;P1;durP2;ratioP2;P2;SDS_P1;SDS_P2;PMS_P1;PMS_P2;Temp;Humidity;BMP_temperature;BMP_pressure;BME280_temperature;BME280_humidity;BME280_pressure;Samples;Min_cycle;Max_cycle;Signal;HPM_P1;HPM_P2
2022/01/12 00:00:24;;;;;;;;;51.33;39.67;;;;;4.09;87.27;103337.34;4980203;28;45317;-67
2022/01/12 00:02:49;;;;;;;;;49.33;41.00;;;;;4.10;88.04;103340.88;4980016;28;45277;-68
2022/01/12 00:05:16;;;;;;;;;40.67;32.33;;;;;4.15;87.35;103339.34;4980038;28;46173;-67
2022/01/12 00:07:42;;;;;;;;;46.67;34.33;;;;;4.17;87.28;103330.78;4979701;28;45446;-67
2022/01/12 00:10:08;;;;;;;;;43.00;36.67;;;;;4.17;87.16;103341.22;4979824;28;45340;-67
2022/01/12 00:12:33;;;;;;;;;55.67;41.33;;;;;4.18;88.11;103336.88;4980172;28;45491;-67
2022/01/12 00:14:59;;;;;;;;;46.00;39.33;;;;;4.04;88.14;103311.91;4979309;28;46299;-67
2022/01/12 00:17:24;;;;;;;;;45.00;31.33;;;;;4.23;88.00;103345.81;4979490;28;45354;-67
2022/01/12 00:19:49;;;;;;;;;51.00;38.67;;;;;4.24;87.56;103346.69;4979943;28;45249;-67
2022/01/12 00:22:15;;;;;;;;;53.33;42.33;;;;;4.12;87.42;103334.88;4980004;28;45467;-67
2022/01/12 00:25:11;;;;;;;;;57.67;40.00;;;;;4.21;88.71;103357.88;4979818;28;45377;-67
2022/01/12 00:33:12;;;;;;;;;65.33;46.67;;;;;4.23;88.71;103365.81;4979573;28;45289;-68
2022/01/12 00:35:45;;;;;;;;;56.33;36.67;;;;;4.16;88.90;103354.19;4979319;28;46260;-67
2022/01/12 00:38:11;;;;;;;;;61.33;43.33;;;;;4.22;89.45;103367.50;4979279;28;45214;-67
2022/01/12 00:40:51;;;;;;;;;47.67;38.00;;;;;4.30;88.61;103376.56;4979561;28;45314;-67
2022/01/12 00:43:19;;;;;;;;;57.33;40.00;;;;;4.29;88.21;103360.88;4979731;28;46042;-67
2022/01/12 00:45:46;;;;;;;;;45.00;37.67;;;;;4.26;88.43;103355.50;4979061;28;46362;-67
2022/01/12 00:48:15;;;;;;;;;54.33;39.00;;;;;4.23;88.14;103358.88;4979315;28;45395;-67
2022/01/12 00:50:42;;;;;;;;;53.67;41.00;;;;;4.22;88.78;103358.78;4979463;28;45469;-67
2022/01/12 00:53:08;;;;;;;;;49.67;37.67;;;;;4.18;88.26;103342.09;4979323;28;45178;-67
2022/01/12 00:55:35;;;;;;;;;55.67;41.00;;;;;4.10;87.85;103328.72;4979227;28;46513;-67
2022/01/12 00:58:00;;;;;;;;;59.67;43.67;;;;;4.04;89.14;103335.34;4977901;28;45211;-67
2022/01/12 01:00:27;;;;;;;;;60.67;43.67;;;;;3.97;88.52;103321.16;4979433;28;45289;-67
2022/01/12 01:02:54;;;;;;;;;61.00;41.33;;;;;3.71;88.99;103276.53;4979260;28;45194;-67
2022/01/12 01:05:24;;;;;;;;;58.67;41.67;;;;;3.95;90.04;103323.69;4978924;28;45466;-67
2022/01/12 01:07:51;;;;;;;;;47.67;41.00;;;;;3.80;89.66;103305.63;4978762;28;45371;-67
2022/01/12 01:10:28;;;;;;;;;50.67;41.33;;;;;3.94;90.54;103332.34;4979101;28;45372;-67
2022/01/12 01:12:54;;;;;;;;;54.33;43.33;;;;;3.91;91.17;103339.13;4978921;28;45458;-67
2022/01/12 01:15:28;;;;;;;;;49.67;38.00;;;;;3.93;90.32;103340.97;4978445;28;45840;-67
2022/01/12 01:26:15;;;;;;;;;56.67;44.00;;;;;3.87;91.93;103374.56;4976392;28;45292;-68
2022/01/12 01:28:40;;;;;;;;;52.33;37.00;;;;;3.92;92.61;103369.56;4976357;28;45482;-66
2022/01/12 01:31:06;;;;;;;;;54.33;41.33;;;;;3.95;93.23;103361.88;4976779;28;45316;-67
2022/01/12 01:33:32;;;;;;;;;64.67;45.33;;;;;3.95;92.77;103360.19;4976339;28;45533;-67
2022/01/12 01:35:58;;;;;;;;;40.67;37.67;;;;;3.94;91.31;103353.19;4976337;28;45498;-67
2022/01/12 01:38:24;;;;;;;;;51.67;37.33;;;;;3.98;90.62;103373.38;4976455;28;45292;-67
2022/01/12 01:40:49;;;;;;;;;54.33;40.33;;;;;3.97;91.23;103378.50;4976445;28;45578;-69
2022/01/12 01:54:13;;;;;;;;;59.00;44.00;;;;;3.90;91.37;103366.00;4976658;28;45221;-67
2022/01/12 01:56:39;;;;;;;;;59.33;45.00;;;;;3.82;91.42;103345.69;4975765;28;46438;-67
2022/01/12 01:59:04;;;;;;;;;63.33;41.33;;;;;3.86;91.42;103351.03;4976117;28;45326;-67
2022/01/12 02:01:30;;;;;;;;;53.67;42.33;;;;;3.88;90.81;103357.22;4975034;28;45515;-67
2022/01/12 02:03:59;;;;;;;;;50.67;38.00;;;;;3.84;91.11;103358.78;4977502;28;45403;-67
2022/01/12 02:06:25;;;;;;;;;59.67;41.67;;;;;3.58;91.19;103305.44;4977895;28;45416;-67
2022/01/12 02:08:50;;;;;;;;;59.67;46.00;;;;;3.84;92.50;103358.78;4977069;28;45501;-67
2022/01/12 02:11:16;;;;;;;;;59.00;44.33;;;;;3.88;93.35;103371.16;4977981;28;45464;-67
2022/01/12 02:13:41;;;;;;;;;54.00;41.33;;;;;3.86;91.31;103367.56;4978055;28;45239;-67
2022/01/12 02:16:07;;;;;;;;;56.33;43.33;;;;;3.73;91.33;103340.06;4977581;28;46204;-67
2022/01/12 02:18:53;;;;;;;;;58.50;43.00;;;;;3.93;91.69;103384.41;4978013;28;45449;-67
2022/01/12 02:40:39;;;;;;;;;60.67;45.67;;;;;3.91;90.47;103384.31;4936221;28;45627;-67
2022/01/12 02:53:42;;;;;;;;;60.00;44.00;;;;;4.10;90.99;103413.88;4936597;28;45414;-67
2022/01/12 02:56:20;;;;;;;;;58.00;41.33;;;;;4.12;90.89;103426.13;4936742;28;45483;-67
2022/01/12 02:58:47;;;;;;;;;56.00;42.33;;;;;4.11;90.53;103421.78;4936107;28;46260;-67
2022/01/12 03:03:58;;;;;;;;;63.33;40.33;;;;;3.92;91.90;103425.22;4936080;28;45519;-67
2022/01/12 03:06:33;;;;;;;;;63.33;40.33;;;;;4.00;92.04;103425.56;4936696;28;45341;-67
2022/01/12 03:09:03;;;;;;;;;60.67;41.33;;;;;4.02;92.72;103434.34;4936256;28;45330;-67
2022/01/12 03:11:29;;;;;;;;;54.33;42.67;;;;;3.90;92.87;103410.31;4936175;28;45526;-67
2022/01/12 03:13:55;;;;;;;;;62.00;43.67;;;;;4.10;93.38;103435.63;4936100;28;45336;-67
2022/01/12 03:16:24;;;;;;;;;48.67;40.67;;;;;4.10;91.72;103430.41;4936573;28;45452;-67
2022/01/12 03:18:55;;;;;;;;;63.00;47.33;;;;;4.07;91.52;103430.25;4976849;28;46304;-67
2022/01/12 03:21:24;;;;;;;;;61.00;47.00;;;;;4.04;92.79;103427.50;4979426;28;45415;-67
2022/01/12 03:23:51;;;;;;;;;60.00;41.00;;;;;4.06;92.19;103422.38;4980775;28;45522;-67
2022/01/12 03:26:17;;;;;;;;;61.00;47.67;;;;;4.05;91.88;103428.41;4980538;28;45360;-67
2022/01/12 03:28:44;;;;;;;;;67.00;48.67;;;;;3.99;92.00;103429.00;4980277;28;46396;-67
2022/01/12 03:31:20;;;;;;;;;63.33;49.00;;;;;3.98;91.77;103422.91;4980231;28;45435;-67
2022/01/12 03:39:05;;;;;;;;;48.33;37.33;;;;;3.85;93.63;103415.31;4979932;28;45248;-67
2022/01/12 03:41:32;;;;;;;;;63.00;46.33;;;;;4.04;92.58;103435.34;4980185;28;45361;-67
2022/01/12 03:43:59;;;;;;;;;63.67;44.67;;;;;3.92;92.08;103421.69;4980015;28;45213;-67
2022/01/12 03:46:31;;;;;;;;;59.00;47.00;;;;;3.96;92.29;103436.66;4980437;28;45451;-67
2022/01/12 03:48:57;;;;;;;;;61.00;45.67;;;;;3.80;92.19;103415.06;4994890;28;46561;-67
2022/01/12 03:51:23;;;;;;;;;62.00;45.33;;;;;3.88;94.55;103440.59;4978559;28;45282;-67
2022/01/12 03:53:48;;;;;;;;;62.67;44.67;;;;;3.91;98.39;103448.59;4980330;28;45462;-67
2022/01/12 03:56:14;;;;;;;;;56.67;41.67;;;;;3.91;94.91;103448.59;4980048;28;45387;-67
2022/01/12 03:58:40;;;;;;;;;53.67;44.33;;;;;3.93;95.79;103444.34;4979942;28;46464;-67
2022/01/12 04:01:05;;;;;;;;;49.67;41.67;;;;;3.99;93.19;103447.25;4979852;28;45388;-68
2022/01/12 04:03:37;;;;;;;;;62.00;43.67;;;;;4.01;94.43;103446.50;4979822;28;45800;-67
2022/01/12 04:08:46;;;;;;;;;58.33;44.33;;;;;3.94;93.21;103434.00;4979492;28;45356;-68
2022/01/12 04:11:12;;;;;;;;;61.67;47.00;;;;;3.97;95.29;103439.34;4979747;28;45530;-67
2022/01/12 04:13:37;;;;;;;;;64.33;44.67;;;;;3.96;94.54;103434.06;4979975;28;45316;-67
2022/01/12 04:16:06;;;;;;;;;51.00;42.00;;;;;4.09;94.69;103453.81;4980005;28;45151;-68
2022/01/12 04:18:33;;;;;;;;;56.67;42.67;;;;;4.04;92.59;103442.25;4979615;28;45387;-68
2022/01/12 04:21:01;;;;;;;;;56.00;39.67;;;;;4.09;93.23;103451.19;4979603;28;45471;-68
2022/01/12 04:23:27;;;;;;;;;59.00;41.00;;;;;4.03;92.53;103445.69;4979497;28;45313;-67
2022/01/12 04:26:08;;;;;;;;;61.00;37.67;;;;;3.95;93.12;103440.09;4979729;28;45432;-67
2022/01/12 04:28:34;;;;;;;;;59.00;43.67;;;;;3.82;92.30;103423.88;4979446;28;46485;-67
2022/01/12 04:31:00;;;;;;;;;58.67;43.33;;;;;3.89;92.74;103443.28;4978216;28;45499;-67
2022/01/12 04:33:26;;;;;;;;;66.00;44.33;;;;;3.90;93.69;103433.78;4963772;28;45509;-67
2022/01/12 04:35:54;;;;;;;;;60.67;43.67;;;;;3.87;92.87;103439.72;4968548;28;45690;-67
2022/01/12 04:38:22;;;;;;;;;61.33;47.33;;;;;3.86;93.18;103429.22;4959245;28;46567;-68
2022/01/12 04:40:48;;;;;;;;;63.00;44.00;;;;;3.86;94.56;103435.31;4959512;28;45440;-67
2022/01/12 04:43:15;;;;;;;;;50.00;40.67;;;;;3.88;94.04;103435.38;4960027;28;45383;-68
2022/01/12 04:50:40;;;;;;;;;45.67;37.33;;;;;3.65;94.37;103383.06;4959445;28;45426;-69
2022/01/12 04:53:05;;;;;;;;;52.00;39.67;;;;;3.89;94.70;103421.56;4959681;28;45293;-69
2022/01/12 04:55:30;;;;;;;;;63.33;44.00;;;;;3.99;94.44;103442.03;4960227;28;45269;-69
2022/01/12 04:57:56;;;;;;;;;65.33;47.33;;;;;3.99;94.95;103439.41;4959278;28;45927;-69
2022/01/12 05:00:23;;;;;;;;;60.67;42.33;;;;;4.04;95.34;103443.16;4959446;28;45385;-69
2022/01/12 05:13:34;;;;;;;;;57.00;40.00;;;;;4.15;94.78;103451.47;4959383;28;45440;-69
2022/01/12 05:16:03;;;;;;;;;53.00;42.33;;;;;4.16;94.18;103448.06;4959409;28;45400;-69
2022/01/12 05:18:30;;;;;;;;;57.00;45.00;;;;;4.16;94.94;103448.06;4959033;28;46165;-69
2022/01/12 05:20:56;;;;;;;;;60.00;45.00;;;;;4.06;95.10;103431.06;4958885;28;45504;-69
2022/01/12 05:23:21;;;;;;;;;61.67;45.67;;;;;4.22;93.66;103452.69;4974126;28;45353;-69
2022/01/12 05:25:47;;;;;;;;;48.00;39.67;;;;;4.06;94.57;103438.91;4959259;28;45368;-69
2022/01/12 05:28:14;;;;;;;;;57.33;43.67;;;;;4.17;95.48;103458.56;4959263;28;45371;-69
2022/01/12 05:30:40;;;;;;;;;57.00;43.00;;;;;4.27;94.89;103474.63;4959167;28;45489;-69
2022/01/12 05:33:05;;;;;;;;;51.00;40.33;;;;;4.24;95.44;103469.28;4959031;28;45270;-69
2022/01/12 05:35:33;;;;;;;;;37.00;29.67;;;;;4.27;94.09;103466.81;4959448;28;45541;-69
2022/01/12 05:38:03;;;;;;;;;50.00;39.33;;;;;4.28;94.09;103469.47;4958613;28;46674;-69
2022/01/12 05:40:29;;;;;;;;;55.67;42.67;;;;;4.27;93.84;103470.31;4959205;28;45842;-69
2022/01/12 05:42:56;;;;;;;;;49.00;39.67;;;;;4.14;93.82;103442.78;4958378;28;45348;-70
2022/01/12 05:45:22;;;;;;;;;56.00;40.00;;;;;4.11;94.26;103445.25;4959153;28;45160;-70
2022/01/12 05:50:16;;;;;;;;;66.00;43.67;;;;;4.24;94.97;103461.44;4958597;28;45501;-69
2022/01/12 05:52:42;;;;;;;;;60.33;45.33;;;;;4.28;94.84;103468.59;4958876;28;45479;-70
2022/01/12 05:55:09;;;;;;;;;55.00;43.00;;;;;4.33;95.19;103472.34;4959163;28;45420;-69
2022/01/12 05:57:35;;;;;;;;;58.33;41.00;;;;;4.31;95.68;103466.13;4958493;28;46414;-70
2022/01/12 06:00:03;;;;;;;;;61.33;43.67;;;;;4.34;95.63;103458.44;4958796;28;45259;-69
2022/01/12 06:02:29;;;;;;;;;56.67;41.67;;;;;4.40;95.01;103466.59;4958766;28;45166;-69
2022/01/12 06:04:55;;;;;;;;;66.00;46.33;;;;;4.38;96.22;103469.94;4958775;28;45506;-69
2022/01/12 06:07:20;;;;;;;;;70.00;51.00;;;;;4.31;95.76;103461.84;4958627;28;46558;-69
2022/01/12 06:09:46;;;;;;;;;58.33;44.33;;;;;4.39;96.93;103476.94;4958506;28;45432;-68
2022/01/12 06:12:11;;;;;;;;;59.00;45.67;;;;;4.40;96.51;103479.63;4958458;28;45413;-68
2022/01/12 06:14:37;;;;;;;;;63.67;45.00;;;;;4.40;96.36;103484.84;4958675;28;45520;-69
2022/01/12 06:17:03;;;;;;;;;57.00;43.33;;;;;4.31;95.00;103471.34;4958126;28;46328;-69
2022/01/12 06:19:28;;;;;;;;;76.67;57.00;;;;;4.37;97.74;103489.88;4958070;28;45202;-69
2022/01/12 06:21:53;;;;;;;;;55.00;42.00;;;;;4.33;95.55;103480.16;4970027;28;45891;-68
2022/01/12 06:24:19;;;;;;;;;62.00;45.00;;;;;4.35;95.43;103478.50;4977728;28;45335;-69
2022/01/12 06:26:46;;;;;;;;;58.33;44.33;;;;;4.38;96.05;103486.47;4977595;28;45565;-68
2022/01/12 06:29:25;;;;;;;;;64.67;44.00;;;;;4.32;96.65;103483.59;4977826;28;45315;-68
2022/01/12 06:31:54;;;;;;;;;65.67;45.33;;;;;4.37;96.90;103500.31;4977893;28;45511;-68
2022/01/12 06:34:20;;;;;;;;;67.00;47.00;;;;;4.39;96.89;103498.69;4977628;28;45361;-69
2022/01/12 06:36:46;;;;;;;;;54.33;42.33;;;;;4.33;95.44;103485.38;4977243;28;45484;-68
2022/01/12 06:39:14;;;;;;;;;62.33;45.33;;;;;4.27;97.27;103483.38;4977491;28;45265;-68
2022/01/12 06:41:41;;;;;;;;;69.00;50.67;;;;;4.33;96.90;103495.81;4977549;28;45212;-69
2022/01/12 06:44:07;;;;;;;;;57.00;43.67;;;;;4.39;98.24;103505.66;4977902;28;45447;-69
2022/01/12 06:46:35;;;;;;;;;64.67;42.67;;;;;4.43;95.54;103510.16;4977215;28;45316;-69
2022/01/12 06:49:01;;;;;;;;;52.67;40.00;;;;;4.36;96.27;103502.06;4977273;28;45267;-69
2022/01/12 06:51:26;;;;;;;;;55.67;44.00;;;;;4.42;97.13;103511.00;4977571;28;45282;-68
2022/01/12 06:53:54;;;;;;;;;62.67;47.33;;;;;4.51;97.11;103516.66;4977887;28;45529;-69
2022/01/12 06:56:20;;;;;;;;;70.67;50.33;;;;;4.50;95.88;103522.69;4982031;28;45459;-69
2022/01/12 06:58:46;;;;;;;;;59.67;47.00;;;;;4.49;96.84;103520.91;5000404;28;45367;-68
2022/01/12 07:01:12;;;;;;;;;64.33;48.67;;;;;4.55;97.07;103534.25;5000417;28;45477;-69
2022/01/12 07:03:37;;;;;;;;;67.33;45.33;;;;;4.32;95.91;103499.22;5000730;28;45503;-69
2022/01/12 07:06:04;;;;;;;;;56.67;43.33;;;;;4.57;96.78;103548.25;5000280;28;46328;-68
2022/01/12 07:08:29;;;;;;;;;60.33;40.33;;;;;4.62;96.95;103557.19;5000522;28;45374;-68
2022/01/12 07:10:55;;;;;;;;;60.33;41.00;;;;;4.65;95.64;103553.84;5000798;28;45325;-69
2022/01/12 07:13:20;;;;;;;;;67.00;45.00;;;;;4.63;95.26;103550.25;5000792;28;45288;-69
2022/01/12 07:15:46;;;;;;;;;62.00;42.67;;;;;4.57;95.56;103547.34;5000384;28;46413;-69
2022/01/12 07:18:12;;;;;;;;;72.00;48.67;;;;;4.54;95.79;103545.50;5000385;28;45380;-68
2022/01/12 07:20:37;;;;;;;;;63.33;45.67;;;;;4.53;96.80;103552.44;5000370;28;45343;-68
2022/01/12 07:23:04;;;;;;;;;64.33;49.67;;;;;4.63;96.89;103565.91;5000663;28;45550;-68
2022/01/12 07:25:29;;;;;;;;;60.00;47.00;;;;;4.66;97.37;103566.97;5000170;28;46742;-69
2022/01/12 07:27:55;;;;;;;;;59.00;46.00;;;;;4.66;96.52;103559.13;5000068;28;45291;-69
2022/01/12 07:30:24;;;;;;;;;62.33;46.00;;;;;4.73;97.09;103575.97;5000408;28;45229;-69
2022/01/12 07:32:50;;;;;;;;;65.33;48.33;;;;;4.77;96.03;103577.00;5000402;28;45412;-69
2022/01/12 07:35:16;;;;;;;;;53.00;42.67;;;;;4.70;96.64;103567.97;4999755;28;46278;-68
2022/01/12 07:37:41;;;;;;;;;55.00;43.33;;;;;4.80;96.23;103583.25;4999851;28;45530;-69
2022/01/12 07:40:07;;;;;;;;;59.00;43.67;;;;;4.71;95.74;103562.84;5000170;28;45622;-69
2022/01/12 07:42:33;;;;;;;;;63.67;46.00;;;;;4.83;95.87;103586.00;5000464;28;45339;-69
2022/01/12 07:45:00;;;;;;;;;59.67;44.67;;;;;4.77;95.51;103577.91;4999844;28;46406;-69
2022/01/12 07:47:30;;;;;;;;;65.33;47.67;;;;;4.80;96.37;103579.75;4999988;28;45415;-69
2022/01/12 07:49:57;;;;;;;;;61.33;47.67;;;;;4.86;96.01;103593.97;4999881;28;45336;-69
2022/01/12 07:52:23;;;;;;;;;68.00;52.67;;;;;4.87;96.37;103603.59;5000212;28;45181;-69
2022/01/12 07:54:49;;;;;;;;;65.67;48.67;;;;;4.84;96.67;103603.47;4999787;28;46202;-69
2022/01/12 07:57:14;;;;;;;;;63.33;50.67;;;;;4.85;95.63;103597.44;4999734;28;45339;-69
2022/01/12 07:59:40;;;;;;;;;63.67;44.00;;;;;4.90;96.14;103613.31;4999553;28;45379;-69
2022/01/12 08:02:06;;;;;;;;;81.00;58.67;;;;;4.91;95.53;103617.72;5000067;28;45225;-69
2022/01/12 08:04:32;;;;;;;;;73.33;56.00;;;;;4.85;95.51;103612.19;4998291;28;46660;-69
2022/01/12 08:06:57;;;;;;;;;71.00;51.00;;;;;4.78;95.34;103600.56;4998710;28;45481;-69
2022/01/12 08:09:22;;;;;;;;;48.00;41.33;;;;;4.83;95.88;103630.38;4999632;28;45810;-69
2022/01/12 08:11:48;;;;;;;;;64.33;50.00;;;;;4.76;96.75;103617.84;4999973;28;45383;-69
2022/01/12 08:14:15;;;;;;;;;72.33;48.33;;;;;4.82;96.58;103636.44;4999519;28;45446;-69
2022/01/12 08:16:41;;;;;;;;;65.00;47.50;;;;;4.76;96.71;103635.25;4999472;28;45366;-69
2022/01/12 08:19:07;;;;;;;;;61.00;45.33;;;;;4.69;97.18;103623.59;4999616;28;45263;-69
2022/01/12 08:21:32;;;;;;;;;68.67;49.00;;;;;4.76;97.31;103624.81;4999400;28;45838;-70
2022/01/12 08:23:58;;;;;;;;;57.33;47.67;;;;;4.83;98.80;103634.72;4999291;28;45737;-69
2022/01/12 08:26:23;;;;;;;;;57.00;45.67;;;;;4.78;97.29;103623.16;4999492;28;45371;-69
2022/01/12 08:28:49;;;;;;;;;68.33;49.33;;;;;4.86;97.95;103640.97;4999445;28;45293;-69
2022/01/12 08:31:14;;;;;;;;;67.67;46.00;;;;;4.88;96.92;103635.84;4999775;28;45154;-69
2022/01/12 08:33:39;;;;;;;;;61.00;48.67;;;;;4.92;96.17;103637.75;4998869;28;46761;-69
2022/01/12 08:36:05;;;;;;;;;56.33;41.67;;;;;4.93;96.10;103643.91;4999172;28;45272;-69
2022/01/12 08:38:30;;;;;;;;;65.00;48.33;;;;;4.90;96.06;103631.59;4999469;28;45262;-69
2022/01/12 08:40:56;;;;;;;;;68.33;46.67;;;;;4.94;95.57;103646.56;4999270;28;45390;-69
2022/01/12 08:43:22;;;;;;;;;63.00;49.33;;;;;4.98;96.95;103652.81;4999103;28;46659;-69
2022/01/12 08:45:47;;;;;;;;;64.00;47.00;;;;;4.99;97.90;103646.78;4999038;28;45320;-70
2022/01/12 08:48:12;;;;;;;;;66.33;50.00;;;;;5.03;97.48;103654.84;4999254;28;45348;-70
2022/01/12 08:50:38;;;;;;;;;74.33;53.67;;;;;5.05;97.60;103642.75;4999177;28;45387;-69
2022/01/12 08:53:04;;;;;;;;;74.00;54.00;;;;;5.16;97.12;103658.03;4998903;28;45572;-69
2022/01/12 08:55:30;;;;;;;;;63.33;47.67;;;;;5.16;96.23;103652.81;4999132;28;45354;-69
2022/01/12 08:57:58;;;;;;;;;73.33;51.33;;;;;5.18;96.31;103664.22;4998859;28;45245;-69
2022/01/12 09:00:24;;;;;;;;;74.67;53.67;;;;;5.17;97.49;103667.63;4999205;28;45319;-69
2022/01/12 09:02:49;;;;;;;;;74.33;52.00;;;;;5.20;97.42;103678.25;4998694;28;45488;-69
2022/01/12 09:05:15;;;;;;;;;74.67;48.33;;;;;5.24;96.43;103680.16;4998669;28;45425;-69
2022/01/12 09:07:42;;;;;;;;;67.33;50.33;;;;;5.19;96.52;103664.28;4998893;28;45218;-69
2022/01/12 09:10:08;;;;;;;;;77.00;53.33;;;;;5.29;96.63;103693.47;4998825;28;45483;-69
2022/01/12 09:12:36;;;;;;;;;72.67;54.33;;;;;5.37;96.85;103698.22;4998377;28;45535;-69
2022/01/12 09:15:03;;;;;;;;;69.33;50.00;;;;;5.28;95.53;103686.44;4998562;28;45260;-69
2022/01/12 09:17:30;;;;;;;;;65.33;50.33;;;;;5.45;95.80;103708.16;4997720;28;45277;-69
2022/01/12 09:19:56;;;;;;;;;69.00;51.33;;;;;5.41;96.52;103714.94;4998506;28;45328;-69
2022/01/12 09:22:21;;;;;;;;;80.67;59.00;;;;;5.41;96.46;103704.47;4998195;28;46210;-69
2022/01/12 09:24:47;;;;;;;;;74.67;53.33;;;;;5.58;95.72;103734.00;4998274;28;45344;-69
2022/01/12 09:27:13;;;;;;;;;73.00;53.00;;;;;5.61;96.12;103731.53;4998508;28;45241;-69
2022/01/12 09:29:39;;;;;;;;;79.67;56.00;;;;;5.58;95.94;103719.22;4998585;28;45515;-69
2022/01/12 09:32:04;;;;;;;;;76.00;52.67;;;;;5.57;96.17;103706.97;4998386;28;46083;-69
2022/01/12 09:34:30;;;;;;;;;64.00;48.67;;;;;5.70;95.73;103728.44;4998012;28;45465;-69
2022/01/12 09:36:57;;;;;;;;;70.67;51.00;;;;;5.68;96.71;103719.66;4998251;28;45305;-69
2022/01/12 09:39:23;;;;;;;;;66.33;48.67;;;;;5.77;96.08;103727.91;4998476;28;45619;-69
2022/01/12 09:41:48;;;;;;;;;64.67;51.00;;;;;5.59;96.38;103688.72;4997919;28;46194;-69
2022/01/12 09:44:15;;;;;;;;;68.67;50.33;;;;;5.85;96.21;103721.31;4998329;28;45301;-69
2022/01/12 09:46:43;;;;;;;;;77.33;57.00;;;;;5.75;95.99;103695.56;4998335;28;45256;-69
2022/01/12 09:49:19;;;;;;;;;82.00;61.75;;;;;5.98;95.57;103746.31;5066916;28;45253;-68
2022/01/12 09:51:44;;;;;;;;;77.33;55.67;;;;;6.06;95.72;103738.81;5050120;28;45587;-68
2022/01/12 09:54:11;;;;;;;;;76.00;54.67;;;;;6.10;95.59;103748.59;5050729;28;45354;-68
2022/01/12 09:56:37;;;;;;;;;71.00;55.00;;;;;6.05;95.62;103721.34;5050788;28;45400;-68
2022/01/12 09:59:02;;;;;;;;;72.67;50.67;;;;;6.18;95.52;103741.97;5050378;28;45776;-68
2022/01/12 10:01:39;;;;;;;;;75.67;55.33;;;;;6.27;95.58;103758.09;5050566;28;45283;-68
2022/01/12 10:04:10;;;;;;;;;77.67;52.33;;;;;6.26;95.55;103758.03;5050478;28;45372;-68
2022/01/12 10:06:40;;;;;;;;;83.00;58.33;;;;;6.27;96.09;103768.56;5050434;27;45358;-68
2022/01/12 10:09:06;;;;;;;;;79.33;53.33;;;;;6.31;95.46;103773.91;5050044;27;45648;-68
2022/01/12 10:11:32;;;;;;;;;81.00;56.00;;;;;6.36;95.83;103767.16;5050117;28;45374;-68
2022/01/12 10:13:59;;;;;;;;;78.67;54.67;;;;;6.42;94.97;103767.44;5050381;28;45368;-68
2022/01/12 10:16:28;;;;;;;;;79.00;56.00;;;;;6.45;95.49;103781.53;5050341;28;45513;-68
2022/01/12 10:19:00;;;;;;;;;76.33;55.00;;;;;6.44;95.50;103766.66;5049996;28;46267;-68
2022/01/12 10:21:28;;;;;;;;;74.67;56.00;;;;;6.53;95.81;103778.34;5050072;28;45329;-68
2022/01/12 10:24:02;;;;;;;;;80.00;56.33;;;;;6.59;95.79;103787.38;5050208;28;45421;-68
2022/01/12 10:26:37;;;;;;;;;78.33;58.00;;;;;6.55;95.23;103780.22;5050311;28;45220;-68
2022/01/12 10:29:26;;;;;;;;;73.67;54.33;;;;;6.56;95.41;103779.38;5049923;28;45507;-68
2022/01/12 10:32:00;;;;;;;;;79.67;56.67;;;;;6.67;95.62;103789.44;5049841;28;45323;-68
2022/01/12 10:34:36;;;;;;;;;68.67;50.00;;;;;6.68;95.47;103791.19;5050038;28;45463;-68
2022/01/12 10:37:08;;;;;;;;;69.00;52.00;;;;;6.67;94.82;103785.09;5049942;28;45475;-68
2022/01/12 10:39:37;;;;;;;;;63.33;46.33;;;;;6.74;95.86;103787.13;5049539;28;46328;-68
2022/01/12 10:42:05;;;;;;;;;64.67;51.67;;;;;6.82;95.49;103781.31;5049930;28;45391;-68
2022/01/12 10:44:32;;;;;;;;;64.33;49.33;;;;;6.86;94.82;103772.78;5049849;28;45349;-68
2022/01/12 10:47:20;;;;;;;;;72.33;53.67;;;;;6.86;94.68;103771.03;5049641;28;45444;-68
2022/01/12 10:49:54;;;;;;;;;79.33;50.67;;;;;6.87;95.66;103771.91;5049432;28;47549;-68
2022/01/12 10:52:28;;;;;;;;;75.33;55.00;;;;;6.91;94.90;103765.97;5049638;28;45389;-68
2022/01/12 10:54:56;;;;;;;;;67.67;48.33;;;;;6.88;94.66;103761.50;5049850;28;45450;-68
2022/01/12 10:57:30;;;;;;;;;72.00;51.00;;;;;6.94;94.53;103760.88;5049847;27;45554;-68
2022/01/12 11:00:07;;;;;;;;;67.33;49.33;;;;;6.96;94.47;103753.97;5040043;28;45303;-68
2022/01/12 11:02:35;;;;;;;;;72.00;52.67;;;;;6.99;94.77;103753.22;5036238;28;45390;-68
2022/01/12 11:05:01;;;;;;;;;75.33;51.00;;;;;6.99;95.08;103746.25;5036342;28;45422;-68
2022/01/12 11:07:28;;;;;;;;;81.67;61.00;;;;;7.05;94.60;103754.34;5036076;27;45487;-68
2022/01/12 11:09:56;;;;;;;;;71.00;50.00;;;;;7.07;94.21;103754.41;5036095;28;46254;-69
2022/01/12 11:12:22;;;;;;;;;77.00;54.00;;;;;7.10;95.12;103765.91;5036068;28;45337;-68
2022/01/12 11:14:49;;;;;;;;;77.33;54.00;;;;;7.17;94.48;103763.53;5036311;28;45308;-68
2022/01/12 11:17:14;;;;;;;;;73.00;53.67;;;;;7.11;94.57;103746.72;5034953;28;45404;-68
2022/01/12 11:19:49;;;;;;;;;81.33;54.00;;;;;7.25;94.09;103764.75;5035054;28;46481;-68
2022/01/12 11:22:32;;;;;;;;;69.00;53.33;;;;;7.27;94.07;103757.84;5035830;28;45391;-68
2022/01/12 11:24:58;;;;;;;;;72.00;51.00;;;;;7.21;94.37;103740.13;5036041;28;45426;-68
2022/01/12 11:27:24;;;;;;;;;69.00;50.67;;;;;7.34;93.64;103761.59;5034395;28;45421;-68
2022/01/12 11:29:49;;;;;;;;;70.33;51.33;;;;;7.35;93.46;103758.13;5035379;28;47282;-68
2022/01/12 11:32:22;;;;;;;;;65.33;50.33;;;;;7.34;93.49;103761.59;5035910;28;45319;-68
2022/01/12 11:35:02;;;;;;;;;67.00;46.67;;;;;7.30;93.87;103745.75;5035962;28;45322;-68
2022/01/12 11:37:30;;;;;;;;;67.33;50.67;;;;;7.35;93.88;103752.88;5035827;27;45452;-68
2022/01/12 11:40:07;;;;;;;;;69.33;48.67;;;;;7.34;93.28;103748.50;5035674;28;45413;-69
2022/01/12 11:42:36;;;;;;;;;63.67;50.00;;;;;7.48;93.26;103766.53;5035575;28;45465;-69
2022/01/12 11:45:03;;;;;;;;;71.33;50.00;;;;;7.47;92.96;103756.00;5035499;27;45238;-69
2022/01/12 11:47:31;;;;;;;;;64.67;41.00;;;;;7.47;92.59;103751.63;5035417;28;45346;-69
2022/01/12 11:49:57;;;;;;;;;73.00;52.67;;;;;7.42;92.90;103754.91;5035560;28;45461;-69
2022/01/12 11:52:26;;;;;;;;;67.00;46.67;;;;;7.49;92.73;103763.09;5035309;28;45393;-69
2022/01/12 11:55:07;;;;;;;;;61.00;43.67;;;;;7.52;92.71;103754.44;5035950;28;45390;-69
2022/01/12 11:57:35;;;;;;;;;69.67;49.67;;;;;7.52;92.76;103753.56;5035948;28;45436;-69
2022/01/12 12:00:19;;;;;;;;;72.67;56.00;;;;;7.54;93.18;103742.28;5035210;28;46083;-69
2022/01/12 12:02:48;;;;;;;;;67.33;47.67;;;;;7.66;92.26;103749.72;5035381;28;45313;-69
2022/01/12 12:05:17;;;;;;;;;64.67;48.67;;;;;7.70;92.18;103742.84;5035605;28;45208;-69
2022/01/12 12:07:52;;;;;;;;;68.67;48.67;;;;;7.70;92.15;103745.47;5035322;28;45417;-69
2022/01/12 12:10:20;;;;;;;;;61.33;47.00;;;;;7.70;91.83;103746.41;5034694;28;45322;-69
2022/01/12 12:12:47;;;;;;;;;62.00;45.67;;;;;7.71;91.74;103752.53;5034700;28;45439;-69
2022/01/12 12:15:13;;;;;;;;;64.33;48.00;;;;;7.66;91.96;103745.38;5035319;28;45347;-69
2022/01/12 12:17:41;;;;;;;;;63.33;46.33;;;;;7.74;91.10;103760.50;5035030;27;45258;-69
2022/01/12 12:20:10;;;;;;;;;69.67;48.67;;;;;7.56;92.53;103732.75;5035286;28;45360;-69
2022/01/12 12:22:40;;;;;;;;;67.33;44.67;;;;;7.66;92.77;103752.34;5034963;28;45438;-69
2022/01/12 12:25:11;;;;;;;;;68.33;50.00;;;;;7.71;92.66;103755.13;5035145;28;45401;-69
2022/01/12 12:27:39;;;;;;;;;61.67;45.33;;;;;7.71;92.71;103748.19;5035437;28;45445;-68
2022/01/12 12:30:07;;;;;;;;;61.00;45.33;;;;;7.78;92.64;103751.91;5035019;28;46245;-69
2022/01/12 12:32:36;;;;;;;;;57.33;44.00;;;;;7.80;92.58;103759.00;5034932;28;45298;-68
2022/01/12 12:35:05;;;;;;;;;61.00;43.67;;;;;7.74;92.50;103745.69;5035411;28;45227;-68
2022/01/12 12:37:41;;;;;;;;;56.33;41.33;;;;;7.72;92.26;103743.81;5035371;28;45322;-68
2022/01/12 12:40:25;;;;;;;;;61.67;42.67;;;;;7.73;92.71;103745.63;5034901;28;45387;-68
2022/01/12 12:43:05;;;;;;;;;76.00;54.33;;;;;7.73;92.54;103741.25;5034897;28;45304;-68